Time;durP1;ratioP1;P1;durP2;ratioP2;P2;SDS_P1;SDS_P2;PMS_P1;PMS_P2;Temp;Humidity;BMP_temperature;BMP_pressure;BME280_temperature;BME280_humidity;BME280_pressure;Samples;Min_cycle;Max_cycle;Signal;HPM_P1;HPM_P2
2022/12/26 00:02:25;;;;;;;1.13;0.70;;;9.30;99.90;;;;;;5074469;28;20452;-83
2022/12/26 00:04:52;;;;;;;0.50;0.43;;;9.30;99.90;;;;;;5074063;28;20992;-83
2022/12/26 00:07:20;;;;;;;0.60;0.57;;;9.30;99.90;;;;;;5074411;28;20452;-83
2022/12/26 00:09:47;;;;;;;0.50;0.40;;;9.30;99.90;;;;;;5074357;28;20547;-83
2022/12/26 00:12:14;;;;;;;1.90;0.53;;;9.20;99.90;;;;;;5073782;28;20488;-83
2022/12/26 00:14:41;;;;;;;1.17;0.50;;;9.20;99.90;;;;;;5074204;28;20473;-83
2022/12/26 00:17:07;;;;;;;1.17;0.70;;;9.20;99.90;;;;;;5073914;28;20945;-83
2022/12/26 00:19:34;;;;;;;0.40;0.30;;;9.20;99.90;;;;;;5074193;28;20453;-83
2022/12/26 00:22:01;;;;;;;0.50;0.50;;;9.20;99.90;;;;;;5074497;28;20453;-83
2022/12/26 00:24:29;;;;;;;1.00;0.60;;;9.20;99.90;;;;;;5074071;28;20468;-83
2022/12/26 00:26:55;;;;;;;0.60;0.50;;;9.20;99.90;;;;;;5073823;28;20433;-84
2022/12/26 00:29:22;;;;;;;0.50;0.50;;;9.20;99.90;;;;;;5073760;28;20937;-84
2022/12/26 00:31:49;;;;;;;1.33;0.70;;;9.20;99.90;;;;;;5073831;28;20547;-83
2022/12/26 00:34:16;;;;;;;0.77;0.50;;;9.10;99.90;;;;;;5073919;28;20465;-83
2022/12/26 00:36:43;;;;;;;0.40;0.40;;;9.20;99.90;;;;;;5073899;28;20445;-83
2022/12/26 00:39:09;;;;;;;0.40;0.30;;;9.20;99.90;;;;;;5073273;28;20446;-83
2022/12/26 00:41:38;;;;;;;0.53;0.40;;;9.10;99.90;;;;;;5073881;28;20446;-83
2022/12/26 00:44:05;;;;;;;3.23;0.50;;;9.10;99.90;;;;;;5073715;28;20472;-83
2022/12/26 00:46:31;;;;;;;0.57;0.50;;;9.10;99.90;;;;;;5073795;28;20826;-83
2022/12/26 00:48:58;;;;;;;0.50;0.50;;;9.10;99.90;;;;;;5073745;28;20446;-83
2022/12/26 00:51:25;;;;;;;0.83;0.33;;;9.00;99.90;;;;;;5073538;28;20484;-83
2022/12/26 00:53:52;;;;;;;2.10;0.50;;;9.10;99.90;;;;;;5073634;28;20461;-83
2022/12/26 00:56:19;;;;;;;0.40;0.40;;;9.10;99.90;;;;;;5073677;28;20441;-83
2022/12/26 00:58:47;;;;;;;1.10;0.50;;;9.10;99.90;;;;;;5073607;28;20456;-83
2022/12/26 01:01:16;;;;;;;1.00;0.40;;;9.00;99.90;;;;;;5073567;28;20448;-83
2022/12/26 01:03:44;;;;;;;0.50;0.50;;;9.00;99.90;;;;;;5073516;28;20964;-83
2022/12/26 01:06:11;;;;;;;5.20;0.70;;;9.00;99.90;;;;;;5073479;28;20449;-83
2022/12/26 01:08:38;;;;;;;0.60;0.40;;;9.00;99.90;;;;;;5073207;28;20433;-83
2022/12/26 01:11:07;;;;;;;0.47;0.40;;;9.00;99.90;;;;;;5073069;28;20482;-83
2022/12/26 01:13:35;;;;;;;0.50;0.40;;;8.90;99.90;;;;;;5072966;28;20484;-83
2022/12/26 01:16:04;;;;;;;0.90;0.57;;;8.90;99.90;;;;;;5073857;28;20760;-83
2022/12/26 01:18:31;;;;;;;0.40;0.40;;;9.00;99.90;;;;;;5073080;28;20824;-83
2022/12/26 01:21:00;;;;;;;0.40;0.30;;;9.00;99.90;;;;;;5073002;28;20956;-83
2022/12/26 01:23:27;;;;;;;0.53;0.53;;;9.00;99.90;;;;;;5073303;28;20476;-83
2022/12/26 01:25:54;;;;;;;0.60;0.50;;;9.10;99.90;;;;;;5073081;28;20430;-83
2022/12/26 01:28:20;;;;;;;0.87;0.60;;;9.00;99.90;;;;;;5073213;28;20460;-83
2022/12/26 01:30:47;;;;;;;2.10;0.87;;;9.00;99.90;;;;;;5073178;28;20492;-83
2022/12/26 01:33:15;;;;;;;0.50;0.50;;;9.10;99.90;;;;;;5073155;28;20446;-83
2022/12/26 01:35:52;;;;;;;0.50;0.47;;;9.10;99.90;;;;;;5073171;28;20452;-84
2022/12/26 01:38:20;;;;;;;0.93;0.40;;;9.10;99.90;;;;;;5073215;28;20456;-83
2022/12/26 01:40:47;;;;;;;0.60;0.47;;;9.10;99.90;;;;;;5073197;28;20457;-83
2022/12/26 01:43:16;;;;;;;0.30;0.30;;;9.20;99.90;;;;;;5072742;28;20965;-83
2022/12/26 01:45:45;;;;;;;0.57;0.57;;;9.20;99.90;;;;;;5072733;28;20968;-83
2022/12/26 01:48:20;;;;;;;0.60;0.30;;;9.20;99.90;;;;;;5073112;28;20460;-83
2022/12/26 01:50:52;;;;;;;1.03;0.60;;;9.20;99.90;;;;;;5075428;28;20464;-83
2022/12/26 01:53:22;;;;;;;0.53;0.40;;;9.30;99.90;;;;;;5076985;28;20484;-83
2022/12/26 01:55:54;;;;;;;1.23;0.40;;;9.30;99.90;;;;;;5077053;28;20425;-83
2022/12/26 01:58:27;;;;;;;0.43;0.43;;;9.30;99.90;;;;;;5076949;28;20430;-83
2022/12/26 02:00:54;;;;;;;0.40;0.40;;;9.30;99.90;;;;;;5076630;28;20425;-84
2022/12/26 02:06:09;;;;;;;0.50;0.40;;;9.20;99.90;;;;;;5076672;28;20420;-83
2022/12/26 02:08:37;;;;;;;0.77;0.50;;;9.20;99.90;;;;;;5076487;28;20430;-84
2022/12/26 02:11:10;;;;;;;0.40;0.30;;;9.20;99.90;;;;;;5076628;28;20481;-83
2022/12/26 02:13:38;;;;;;;1.33;0.40;;;9.20;99.90;;;;;;5076240;28;21016;-83
2022/12/26 02:16:07;;;;;;;0.60;0.60;;;9.30;99.90;;;;;;5076584;28;20442;-83
2022/12/26 02:18:35;;;;;;;0.50;0.30;;;9.30;99.90;;;;;;5076268;28;20799;-83
2022/12/26 02:21:30;;;;;;;0.50;0.40;;;9.30;99.90;;;;;;5076159;28;20441;-83
2022/12/26 02:24:23;;;;;;;0.40;0.40;;;9.30;99.90;;;;;;5065662;28;20485;-84
2022/12/26 02:27:10;;;;;;;0.93;0.50;;;9.20;99.90;;;;;;5073414;28;20461;-84
2022/12/26 02:30:03;;;;;;;1.40;0.40;;;9.30;99.90;;;;;;5065570;28;20453;-84
2022/12/26 02:32:52;;;;;;;1.03;0.60;;;9.30;99.90;;;;;;5075956;28;20972;-83
2022/12/26 02:35:27;;;;;;;1.43;0.37;;;9.30;99.90;;;;;;5063107;28;20960;-83
2022/12/26 02:38:04;;;;;;;0.80;0.40;;;9.30;99.90;;;;;;5076200;28;20437;-83
2022/12/26 02:40:45;;;;;;;0.40;0.40;;;9.40;99.90;;;;;;5075854;28;20429;-84
2022/12/26 02:43:21;;;;;;;0.37;0.30;;;9.40;99.90;;;;;;5076033;28;20508;-83
2022/12/26 02:48:52;;;;;;;0.50;0.30;;;9.30;99.90;;;;;;5076053;28;20417;-83
2022/12/26 03:14:11;;;;;;;0.50;0.40;;;9.40;99.90;;;;;;5075271;28;20453;-83
2022/12/26 03:19:26;;;;;;;0.40;0.33;;;9.40;99.90;;;;;;5075207;28;20398;-83
2022/12/26 03:21:55;;;;;;;0.40;0.40;;;9.40;99.90;;;;;;5075424;28;20426;-83
2022/12/26 03:24:23;;;;;;;0.70;0.40;;;9.40;99.90;;;;;;5075257;28;20462;-83
2022/12/26 03:26:53;;;;;;;0.50;0.30;;;9.40;99.90;;;;;;5075310;28;20453;-83
2022/12/26 03:32:09;;;;;;;0.40;0.40;;;9.50;99.90;;;;;;5075157;28;21002;-83
2022/12/26 03:34:41;;;;;;;0.80;0.40;;;9.40;99.90;;;;;;5075086;28;20839;-83
2022/12/26 03:37:35;;;;;;;0.37;0.37;;;9.40;99.90;;;;;;5074806;28;20438;-83
2022/12/26 04:20:20;;;;;;;0.40;0.30;;;9.40;99.90;;;;;;5074065;28;20409;-83
2022/12/26 04:45:14;;;;;;;0.50;0.50;;;9.70;99.90;;;;;;5074048;28;20449;-83
2022/12/26 04:50:10;;;;;;;0.30;0.30;;;9.70;99.90;;;;;;5073720;28;20446;-83
2022/12/26 04:50:27;;;;;;;0.40;0.30;;;9.80;99.90;;;;;;5073179;28;20503;-84
2022/12/26 04:53:00;;;;;;;0.30;0.30;;;9.80;99.90;;;;;;5073645;28;20449;-83
2022/12/26 04:55:28;;;;;;;0.93;0.47;;;9.80;99.90;;;;;;5073621;28;20209;-83
2022/12/26 04:57:55;;;;;;;0.50;0.47;;;9.80;99.90;;;;;;5073578;28;20446;-83
2022/12/26 05:00:24;;;;;;;0.40;0.40;;;9.80;99.90;;;;;;5073187;28;20441;-83
2022/12/26 05:11:19;;;;;;;0.40;0.40;;;9.70;99.90;;;;;;5034715;28;20589;-84
2022/12/26 05:13:46;;;;;;;0.63;0.53;;;9.60;99.90;;;;;;5072950;28;20481;-83
2022/12/26 05:29:57;;;;;;;2.20;0.60;;;9.40;99.90;;;;;;5050458;28;20516;-82
2022/12/26 05:35:10;;;;;;;1.90;0.40;;;9.30;99.90;;;;;;5072953;28;20452;-83
2022/12/26 05:37:36;;;;;;;0.50;0.40;;;9.30;99.90;;;;;;5073202;28;20449;-83
2022/12/26 05:40:04;;;;;;;0.40;0.30;;;9.30;99.90;;;;;;5072847;28;20454;-83
2022/12/26 05:42:31;;;;;;;1.33;0.30;;;9.40;99.90;;;;;;5073106;28;20449;-83
2022/12/26 05:44:58;;;;;;;0.63;0.43;;;9.40;99.90;;;;;;5072733;28;20984;-83
2022/12/26 05:47:26;;;;;;;1.03;0.90;;;9.50;99.90;;;;;;5073098;28;20450;-83
2022/12/26 05:49:53;;;;;;;0.60;0.40;;;9.50;99.90;;;;;;5073083;28;20456;-83
2022/12/26 05:52:19;;;;;;;1.70;0.60;;;9.50;99.90;;;;;;5072999;28;20484;-83
2022/12/26 05:54:46;;;;;;;1.63;0.43;;;9.50;99.90;;;;;;5072982;28;20476;-83
2022/12/26 05:57:13;;;;;;;0.37;0.37;;;9.50;99.90;;;;;;5072987;28;20448;-84
2022/12/26 05:59:40;;;;;;;0.70;0.50;;;9.60;99.90;;;;;;5073040;28;20438;-83
2022/12/26 06:02:06;;;;;;;0.50;0.43;;;9.60;99.90;;;;;;5072943;28;20454;-83
2022/12/26 06:04:35;;;;;;;0.40;0.37;;;9.60;99.90;;;;;;5072556;28;20853;-83
2022/12/26 06:07:02;;;;;;;0.43;0.43;;;9.60;99.90;;;;;;5072918;28;20503;-84
2022/12/26 06:09:28;;;;;;;0.83;0.40;;;9.60;99.90;;;;;;5072924;28;20450;-83
2022/12/26 06:11:55;;;;;;;0.50;0.40;;;9.70;99.90;;;;;;5072246;28;20498;-83
2022/12/26 06:14:22;;;;;;;0.60;0.50;;;9.70;99.90;;;;;;5072809;28;20470;-83
2022/12/26 06:16:49;;;;;;;0.97;0.57;;;9.70;99.90;;;;;;5072799;28;20528;-83
2022/12/26 06:19:16;;;;;;;0.40;0.40;;;9.60;99.90;;;;;;5072505;28;20457;-83
2022/12/26 06:21:44;;;;;;;0.37;0.30;;;9.60;99.90;;;;;;5072817;28;20437;-83
2022/12/26 06:24:12;;;;;;;0.40;0.30;;;9.60;99.90;;;;;;5072771;28;20472;-83
2022/12/26 06:26:39;;;;;;;0.43;0.43;;;9.60;99.90;;;;;;5072757;28;20951;-83
2022/12/26 06:29:06;;;;;;;0.40;0.30;;;9.60;99.90;;;;;;5072764;28;20805;-83
2022/12/26 06:31:33;;;;;;;0.40;0.40;;;9.60;99.90;;;;;;5072956;28;20482;-83
2022/12/26 06:34:00;;;;;;;4.53;0.40;;;9.70;99.90;;;;;;5072306;28;20466;-83
2022/12/26 06:36:28;;;;;;;0.60;0.50;;;9.70;99.90;;;;;;5072813;28;20532;-83
2022/12/26 06:38:57;;;;;;;4.13;0.90;;;9.70;99.90;;;;;;5076187;28;20449;-82
2022/12/26 06:41:25;;;;;;;0.30;0.30;;;9.70;99.90;;;;;;5076129;28;20449;-83
2022/12/26 06:43:52;;;;;;;2.00;0.70;;;9.80;99.90;;;;;;5075994;28;20472;-83
2022/12/26 06:46:20;;;;;;;1.00;0.47;;;9.80;99.90;;;;;;5075759;28;20947;-83
2022/12/26 06:48:47;;;;;;;0.57;0.37;;;9.90;99.90;;;;;;5075686;28;20445;-83
2022/12/26 06:51:16;;;;;;;0.80;0.50;;;9.90;99.90;;;;;;5075836;28;20822;-83
2022/12/26 06:53:43;;;;;;;2.07;0.60;;;9.90;99.90;;;;;;5075435;28;21007;-83
2022/12/26 06:56:12;;;;;;;0.40;0.40;;;9.90;99.90;;;;;;5075810;28;20457;-83
2022/12/26 06:58:39;;;;;;;0.37;0.37;;;10.00;99.90;;;;;;5075803;28;20860;-83
2022/12/26 07:01:07;;;;;;;0.70;0.70;;;10.00;99.90;;;;;;5075727;28;20457;-83
2022/12/26 07:03:34;;;;;;;0.40;0.40;;;10.00;99.90;;;;;;5075653;28;20823;-83
2022/12/26 07:06:04;;;;;;;0.40;0.37;;;10.00;99.90;;;;;;5075349;28;20449;-83
2022/12/26 07:08:30;;;;;;;0.60;0.50;;;9.90;99.90;;;;;;5075639;28;20480;-83
2022/12/26 07:10:57;;;;;;;1.10;0.60;;;9.90;99.90;;;;;;5075590;28;20456;-83
2022/12/26 07:13:25;;;;;;;0.40;0.40;;;9.90;99.90;;;;;;5075037;28;20517;-82
2022/12/26 07:15:52;;;;;;;0.50;0.47;;;9.90;99.90;;;;;;5075512;28;20465;-83
2022/12/26 07:18:19;;;;;;;1.23;0.30;;;9.90;99.90;;;;;;5075454;28;20457;-83
2022/12/26 07:20:46;;;;;;;0.40;0.40;;;9.80;99.90;;;;;;5075341;28;20508;-83
2022/12/26 07:23:12;;;;;;;0.40;0.33;;;9.80;99.90;;;;;;5075282;28;20461;-83
2022/12/26 07:25:39;;;;;;;0.50;0.40;;;9.80;99.90;;;;;;5075345;28;20813;-83
2022/12/26 07:28:06;;;;;;;0.40;0.30;;;9.80;99.90;;;;;;5075219;28;20524;-83
2022/12/26 07:30:34;;;;;;;0.70;0.40;;;9.80;99.90;;;;;;5075211;28;20469;-83
2022/12/26 07:33:01;;;;;;;0.60;0.40;;;9.80;99.90;;;;;;5074698;28;20827;-83
2022/12/26 07:35:27;;;;;;;0.73;0.57;;;9.80;99.90;;;;;;5075106;28;20449;-83
2022/12/26 07:37:54;;;;;;;0.40;0.40;;;9.80;99.90;;;;;;5074996;28;20461;-83
2022/12/26 07:40:21;;;;;;;0.90;0.53;;;9.80;99.90;;;;;;5074701;28;20445;-83
2022/12/26 07:42:47;;;;;;;0.40;0.40;;;9.70;99.90;;;;;;5074984;28;20449;-83
2022/12/26 07:45:14;;;;;;;2.20;0.57;;;9.70;99.90;;;;;;5074568;28;20445;-82
2022/12/26 07:47:42;;;;;;;0.50;0.50;;;9.70;99.90;;;;;;5074759;28;20456;-83
2022/12/26 07:50:09;;;;;;;0.40;0.40;;;9.70;99.90;;;;;;5074809;28;20941;-83
2022/12/26 07:52:36;;;;;;;0.70;0.50;;;9.70;99.90;;;;;;5074640;28;20481;-82
2022/12/26 07:55:03;;;;;;;0.43;0.40;;;9.70;99.90;;;;;;5074633;28;20469;-82
2022/12/26 07:57:30;;;;;;;1.13;0.50;;;9.80;99.90;;;;;;5074563;28;20485;-82
2022/12/26 07:59:57;;;;;;;0.83;0.50;;;9.80;99.90;;;;;;5074623;28;20472;-83
2022/12/26 08:02:24;;;;;;;0.50;0.50;;;9.80;99.90;;;;;;5074545;28;20449;-81
2022/12/26 08:04:52;;;;;;;0.50;0.40;;;9.70;99.90;;;;;;5074456;28;20465;-81
2022/12/26 08:07:18;;;;;;;0.60;0.60;;;9.70;99.90;;;;;;5074242;28;20445;-80
2022/12/26 08:09:45;;;;;;;1.80;0.40;;;9.60;99.90;;;;;;5074079;28;20445;-79
2022/12/26 08:12:12;;;;;;;0.40;0.40;;;9.60;99.90;;;;;;5073857;28;20508;-79
2022/12/26 08:14:40;;;;;;;0.40;0.40;;;9.50;99.90;;;;;;5074224;28;20502;-82
2022/12/26 08:17:07;;;;;;;1.10;0.70;;;9.40;99.90;;;;;;5073923;28;20967;-79
2022/12/26 08:19:33;;;;;;;0.70;0.50;;;9.40;99.90;;;;;;5074172;28;20445;-79
2022/12/26 08:22:01;;;;;;;0.93;0.53;;;9.30;99.90;;;;;;5073817;28;20929;-79
2022/12/26 08:24:28;;;;;;;0.47;0.47;;;9.30;99.90;;;;;;5074033;28;20465;-79
2022/12/26 08:26:55;;;;;;;0.60;0.60;;;9.20;99.90;;;;;;5074019;28;20513;-79
2022/12/26 08:29:22;;;;;;;0.50;0.30;;;9.20;99.90;;;;;;5073975;28;20453;-79
2022/12/26 08:31:48;;;;;;;0.80;0.60;;;9.20;99.90;;;;;;5073527;28;20446;-80
2022/12/26 08:34:15;;;;;;;1.13;0.43;;;9.20;99.90;;;;;;5073543;28;20469;-80
2022/12/26 08:36:42;;;;;;;0.40;0.30;;;9.20;99.90;;;;;;5073812;28;20457;-80
2022/12/26 08:39:10;;;;;;;0.60;0.40;;;9.20;99.90;;;;;;5073850;28;20454;-80
2022/12/26 08:41:37;;;;;;;0.67;0.50;;;9.20;99.90;;;;;;5073481;28;20524;-80
2022/12/26 08:44:04;;;;;;;0.40;0.33;;;9.10;99.90;;;;;;5073680;28;20472;-80
2022/12/26 08:46:31;;;;;;;0.80;0.50;;;9.20;99.90;;;;;;5073719;28;20461;-79
2022/12/26 08:48:57;;;;;;;0.87;0.87;;;9.20;99.90;;;;;;5073708;28;20442;-79
2022/12/26 08:51:25;;;;;;;1.27;0.33;;;9.30;99.90;;;;;;5073654;28;20446;-79
2022/12/26 08:53:54;;;;;;;0.47;0.40;;;9.20;99.90;;;;;;5073531;28;20486;-79
2022/12/26 08:56:27;;;;;;;1.53;0.50;;;9.20;99.90;;;;;;5073545;28;20449;-81
2022/12/26 08:58:54;;;;;;;0.60;0.60;;;9.20;99.90;;;;;;5073516;28;20800;-80
2022/12/26 09:01:22;;;;;;;4.90;0.63;;;9.20;99.90;;;;;;5073209;28;20458;-80
2022/12/26 09:03:52;;;;;;;0.30;0.30;;;9.30;99.90;;;;;;5073151;28;20964;-80
2022/12/26 09:06:20;;;;;;;1.27;0.73;;;9.30;99.90;;;;;;5073177;28;20936;-80
2022/12/26 09:08:46;;;;;;;0.50;0.47;;;9.30;99.90;;;;;;5073092;28;20808;-80
2022/12/26 09:11:15;;;;;;;0.40;0.30;;;9.30;99.90;;;;;;5073042;28;20442;-80
2022/12/26 09:13:44;;;;;;;1.40;0.67;;;9.30;99.90;;;;;;5072666;28;21016;-80
2022/12/26 09:16:14;;;;;;;0.60;0.50;;;9.20;99.90;;;;;;5073428;28;20452;-79
2022/12/26 09:18:41;;;;;;;1.37;0.57;;;9.30;99.90;;;;;;5073391;28;20434;-79
2022/12/26 09:21:10;;;;;;;2.10;0.50;;;9.30;99.90;;;;;;5073356;28;20450;-79
2022/12/26 09:23:37;;;;;;;0.47;0.47;;;9.20;99.90;;;;;;5073227;28;20465;-79
2022/12/26 09:26:06;;;;;;;0.30;0.30;;;9.20;99.90;;;;;;5072976;28;20955;-79
2022/12/26 09:28:32;;;;;;;0.57;0.40;;;9.20;99.90;;;;;;5073299;28;20445;-79
2022/12/26 09:31:01;;;;;;;0.37;0.37;;;9.20;99.90;;;;;;5073003;28;20806;-79
2022/12/26 09:33:28;;;;;;;1.53;0.57;;;9.20;99.90;;;;;;5073039;28;20490;-78
2022/12/26 09:35:55;;;;;;;0.40;0.30;;;9.20;99.90;;;;;;5072877;28;20445;-78
2022/12/26 09:38:21;;;;;;;0.40;0.30;;;9.10;99.90;;;;;;5073174;28;20449;-79
2022/12/26 09:41:01;;;;;;;2.07;1.27;;;9.10;99.90;;;;;;5073216;28;20443;-78
2022/12/26 09:43:38;;;;;;;0.87;0.60;;;9.00;99.90;;;;;;5073111;28;20464;-79
2022/12/26 09:46:14;;;;;;;0.50;0.50;;;9.00;99.90;;;;;;5073226;28;20433;-79
2022/12/26 09:48:51;;;;;;;0.40;0.30;;;9.00;99.90;;;;;;5073149;28;20434;-79
2022/12/26 09:51:18;;;;;;;0.73;0.40;;;9.00;99.90;;;;;;5073180;28;20433;-79
2022/12/26 09:53:47;;;;;;;3.70;0.60;;;9.00;99.90;;;;;;5072628;28;20988;-79
2022/12/26 09:56:17;;;;;;;2.50;0.77;;;9.00;99.90;;;;;;5072972;28;20462;-80
2022/12/26 09:58:46;;;;;;;0.40;0.37;;;9.10;99.90;;;;;;5073018;28;20533;-80
2022/12/26 10:01:19;;;;;;;0.50;0.50;;;9.10;99.90;;;;;;5072954;28;20441;-80
2022/12/26 10:03:48;;;;;;;1.23;1.13;;;9.10;99.90;;;;;;5072878;28;20498;-81
2022/12/26 10:06:17;;;;;;;1.40;0.70;;;9.10;99.90;;;;;;5072957;28;20449;-81
2022/12/26 10:09:17;;;;;;;0.50;0.50;;;9.20;99.90;;;;;;5072910;28;20453;-81
2022/12/26 10:11:55;;;;;;;0.60;0.47;;;9.20;99.90;;;;;;5062926;28;20449;-81
2022/12/26 10:14:40;;;;;;;4.63;0.70;;;9.20;99.90;;;;;;5076220;28;21007;-80
2022/12/26 10:17:19;;;;;;;0.70;0.70;;;9.20;99.90;;;;;;5076679;28;20430;-80
2022/12/26 10:19:58;;;;;;;4.17;0.67;;;9.20;99.90;;;;;;5076600;28;20437;-80
2022/12/26 10:22:45;;;;;;;0.43;0.43;;;9.20;99.90;;;;;;5076474;28;20438;-80
2022/12/26 10:25:17;;;;;;;0.50;0.50;;;9.20;99.90;;;;;;5076398;28;20477;-80
2022/12/26 10:27:48;;;;;;;0.70;0.40;;;9.20;99.90;;;;;;5076063;28;20515;-80
2022/12/26 10:30:21;;;;;;;0.40;0.40;;;9.30;99.90;;;;;;5076386;28;20434;-80
2022/12/26 10:32:53;;;;;;;0.50;0.50;;;9.20;99.90;;;;;;5076011;28;20559;-80
2022/12/26 10:35:25;;;;;;;0.50;0.50;;;9.30;99.90;;;;;;5076785;28;20472;-80
2022/12/26 10:37:55;;;;;;;0.60;0.40;;;9.30;99.90;;;;;;5076255;28;20430;-80
2022/12/26 10:40:27;;;;;;;6.23;0.53;;;9.40;99.90;;;;;;5076018;28;20464;-81
2022/12/26 10:42:55;;;;;;;0.57;0.43;;;9.40;99.90;;;;;;5076093;28;20454;-80
2022/12/26 10:45:30;;;;;;;0.77;0.77;;;9.40;99.90;;;;;;5075875;28;20461;-80
2022/12/26 10:48:00;;;;;;;1.13;0.73;;;9.40;99.90;;;;;;5075764;28;20944;-80
2022/12/26 10:50:29;;;;;;;3.90;0.70;;;9.50;99.90;;;;;;5075984;28;20481;-81
2022/12/26 10:52:58;;;;;;;3.43;0.43;;;9.50;99.90;;;;;;5075825;28;20910;-81
2022/12/26 10:55:28;;;;;;;0.53;0.43;;;9.50;99.90;;;;;;5075597;28;20438;-82
2022/12/26 10:58:01;;;;;;;0.90;0.50;;;9.50;99.90;;;;;;5075828;28;20440;-82
2022/12/26 11:00:29;;;;;;;1.27;0.70;;;9.50;99.90;;;;;;5075541;28;20936;-82
2022/12/26 11:03:08;;;;;;;0.30;0.30;;;9.50;99.90;;;;;;5075655;28;20468;-83
2022/12/26 11:05:37;;;;;;;0.40;0.40;;;9.40;99.90;;;;;;5075720;28;20434;-83
2022/12/26 11:08:14;;;;;;;0.40;0.40;;;9.40;99.90;;;;;;5075608;28;20438;-83
2022/12/26 11:10:46;;;;;;;1.30;0.50;;;9.40;99.90;;;;;;5075630;28;20446;-82
2022/12/26 11:13:20;;;;;;;0.50;0.43;;;9.40;99.90;;;;;;5075005;28;20517;-82
2022/12/26 11:15:49;;;;;;;1.83;0.40;;;9.40;99.90;;;;;;5075502;28;20434;-82
2022/12/26 11:18:22;;;;;;;0.70;0.50;;;9.40;99.90;;;;;;5075434;28;20446;-82
2022/12/26 11:20:49;;;;;;;0.30;0.20;;;9.40;99.90;;;;;;5075164;28;20434;-82
2022/12/26 11:23:26;;;;;;;0.50;0.40;;;9.50;99.90;;;;;;5074484;28;20469;-83
2022/12/26 11:25:57;;;;;;;0.30;0.30;;;9.40;99.90;;;;;;5075337;28;20573;-83
2022/12/26 11:28:27;;;;;;;0.37;0.30;;;9.40;99.90;;;;;;5075044;28;20453;-83
2022/12/26 11:30:54;;;;;;;0.40;0.40;;;9.40;99.90;;;;;;5074979;28;20422;-83
2022/12/26 11:33:26;;;;;;;0.63;0.40;;;9.40;99.90;;;;;;5075063;28;20492;-83
2022/12/26 11:36:00;;;;;;;0.33;0.30;;;9.40;99.90;;;;;;5074897;28;20445;-83
2022/12/26 11:38:37;;;;;;;0.30;0.30;;;9.40;99.90;;;;;;5075129;28;20437;-84
2022/12/26 11:43:54;;;;;;;0.40;0.30;;;9.40;99.90;;;;;;5074987;28;20894;-83
2022/12/26 11:46:31;;;;;;;0.40;0.30;;;9.40;99.90;;;;;;5074598;28;20456;-83
2022/12/26 11:48:59;;;;;;;0.33;0.30;;;9.40;99.90;;;;;;5074589;28;20924;-83
2022/12/26 11:51:39;;;;;;;0.30;0.20;;;9.40;99.90;;;;;;5074836;28;20453;-83
2022/12/26 11:54:27;;;;;;;0.30;0.30;;;9.30;99.90;;;;;;5074418;28;20854;-83
2022/12/26 11:57:08;;;;;;;0.30;0.30;;;9.20;99.90;;;;;;5053360;28;20449;-83
2022/12/26 11:59:34;;;;;;;0.30;0.20;;;9.20;99.90;;;;;;5054348;28;20431;-84
2022/12/26 12:02:17;;;;;;;0.30;0.20;;;9.20;99.90;;;;;;5053599;28;20446;-84
2022/12/26 12:04:47;;;;;;;0.37;0.27;;;9.20;99.90;;;;;;5054476;28;20493;-83
2022/12/26 12:07:21;;;;;;;0.33;0.33;;;9.20;99.90;;;;;;5053959;28;20930;-83
2022/12/26 12:09:55;;;;;;;0.30;0.30;;;9.30;99.90;;;;;;5054049;28;20441;-83
2022/12/26 12:12:31;;;;;;;0.33;0.30;;;9.30;99.90;;;;;;5053622;28;21024;-83
2022/12/26 12:15:04;;;;;;;0.30;0.20;;;9.30;99.90;;;;;;5054696;28;20494;-83
2022/12/26 12:17:39;;;;;;;0.40;0.30;;;9.30;99.90;;;;;;5053301;28;20439;-84
2022/12/26 12:20:19;;;;;;;0.30;0.20;;;9.40;99.90;;;;;;5054361;28;20431;-84
2022/12/26 12:23:24;;;;;;;0.30;0.30;;;9.30;99.90;;;;;;5053880;28;20430;-82
2022/12/26 12:26:03;;;;;;;0.30;0.30;;;9.30;99.90;;;;;;5053363;28;20779;-82
2022/12/26 12:29:02;;;;;;;0.30;0.20;;;9.30;99.90;;;;;;5054224;28;20418;-82
2022/12/26 12:31:40;;;;;;;0.30;0.20;;;9.30;99.90;;;;;;5053716;28;20446;-82
2022/12/26 12:34:16;;;;;;;2.73;0.40;;;9.20;99.90;;;;;;5053130;28;20494;-82
2022/12/26 12:36:59;;;;;;;0.30;0.30;;;9.20;99.90;;;;;;5053300;28;20505;-82
2022/12/26 12:39:38;;;;;;;0.30;0.20;;;9.10;99.90;;;;;;5053579;28;20439;-82
2022/12/26 12:42:17;;;;;;;0.30;0.20;;;9.10;99.90;;;;;;5053700;28;20430;-82
2022/12/26 12:44:55;;;;;;;0.30;0.20;;;9.20;99.90;;;;;;5053694;28;20458;-82
2022/12/26 12:47:32;;;;;;;0.30;0.30;;;9.20;99.90;;;;;;5052738;28;20434;-82
2022/12/26 12:50:07;;;;;;;0.30;0.30;;;9.20;99.90;;;;;;5053717;28;20431;-82
2022/12/26 12:52:46;;;;;;;0.30;0.30;;;9.20;99.90;;;;;;5053211;28;20453;-82
2022/12/26 12:55:52;;;;;;;0.30;0.30;;;9.30;99.90;;;;;;5052858;28;20510;-82
2022/12/26 12:58:32;;;;;;;0.30;0.30;;;9.20;99.90;;;;;;5053185;28;20431;-81
2022/12/26 13:01:06;;;;;;;0.60;0.30;;;9.20;99.90;;;;;;5052875;28;20431;-82
2022/12/26 13:03:42;;;;;;;0.30;0.30;;;9.30;99.90;;;;;;5052737;28;20450;-81
2022/12/26 13:06:13;;;;;;;0.30;0.20;;;9.30;99.90;;;;;;5052739;28;20443;-81
2022/12/26 13:08:49;;;;;;;0.30;0.30;;;9.40;99.90;;;;;;5052842;28;20453;-81
2022/12/26 13:11:32;;;;;;;0.30;0.30;;;9.40;99.90;;;;;;5057800;28;20543;-81
2022/12/26 13:14:06;;;;;;;0.40;0.30;;;9.40;99.90;;;;;;5070704;28;20496;-81
2022/12/26 13:16:42;;;;;;;0.40;0.30;;;9.40;99.90;;;;;;5069102;28;20946;-81
2022/12/26 13:19:18;;;;;;;0.40;0.40;;;9.50;99.90;;;;;;5072649;28;20464;-80
2022/12/26 13:21:50;;;;;;;0.30;0.30;;;9.40;99.90;;;;;;5072826;28;20495;-81
2022/12/26 13:24:27;;;;;;;0.40;0.30;;;9.40;99.90;;;;;;5072810;28;20469;-81
2022/12/26 13:27:02;;;;;;;0.50;0.30;;;9.40;99.90;;;;;;5073150;28;20839;-81
2022/12/26 13:29:42;;;;;;;0.50;0.40;;;9.40;99.90;;;;;;5072635;28;20437;-81
2022/12/26 13:32:20;;;;;;;0.30;0.20;;;9.40;99.90;;;;;;5053238;28;20442;-81
2022/12/26 13:34:49;;;;;;;0.30;0.30;;;9.40;99.90;;;;;;5052765;28;20518;-81
2022/12/26 13:37:53;;;;;;;1.20;0.50;;;9.40;99.90;;;;;;5052272;28;20449;-81
2022/12/26 13:40:25;;;;;;;3.77;0.43;;;9.50;99.90;;;;;;5010700;28;20443;-81
2022/12/26 13:46:01;;;;;;;0.90;0.30;;;9.60;99.90;;;;;;5038600;28;20441;-81
2022/12/26 13:48:59;;;;;;;0.30;0.27;;;9.70;99.90;;;;;;5056683;28;20430;-81
2022/12/26 13:51:51;;;;;;;0.30;0.30;;;9.70;99.90;;;;;;5056788;28;20442;-81
2022/12/26 13:54:20;;;;;;;0.30;0.20;;;9.60;99.90;;;;;;5056533;28;20585;-82
2022/12/26 13:57:15;;;;;;;0.30;0.20;;;9.60;99.90;;;;;;5056832;28;20446;-81
2022/12/26 14:00:03;;;;;;;0.30;0.30;;;9.60;99.90;;;;;;5056197;28;20469;-81
2022/12/26 14:03:16;;;;;;;0.30;0.30;;;9.60;99.90;;;;;;5055363;28;20541;-81
2022/12/26 14:06:11;;;;;;;0.30;0.20;;;9.60;99.90;;;;;;5014720;28;20843;-81
2022/12/26 14:08:48;;;;;;;0.40;0.40;;;9.50;99.90;;;;;;5011134;28;20459;-81
2022/12/26 14:11:34;;;;;;;0.30;0.30;;;9.50;99.90;;;;;;5047855;28;20446;-81
2022/12/26 14:14:16;;;;;;;0.40;0.30;;;9.50;99.90;;;;;;5055868;28;20493;-81
2022/12/26 14:16:55;;;;;;;0.40;0.30;;;9.50;99.90;;;;;;5056466;28;20520;-81
2022/12/26 14:19:37;;;;;;;0.30;0.20;;;9.50;99.90;;;;;;5056572;28;20430;-82
2022/12/26 14:22:21;;;;;;;0.30;0.30;;;9.60;99.90;;;;;;5056236;28;20444;-80
2022/12/26 14:25:04;;;;;;;0.97;0.50;;;9.50;99.90;;;;;;5056473;28;20528;-81
2022/12/26 14:27:40;;;;;;;0.40;0.30;;;9.60;99.90;;;;;;5056221;28;20448;-80
2022/12/26 14:30:23;;;;;;;1.50;0.40;;;9.50;99.90;;;;;;5055540;28;20461;-81
2022/12/26 14:33:13;;;;;;;0.60;0.30;;;9.50;99.90;;;;;;5056293;28;20435;-81
2022/12/26 14:35:47;;;;;;;0.30;0.30;;;9.50;99.90;;;;;;5056000;28;20482;-81
2022/12/26 14:38:28;;;;;;;0.30;0.30;;;9.50;99.90;;;;;;5055427;28;20424;-81
2022/12/26 14:41:03;;;;;;;0.30;0.30;;;9.50;99.90;;;;;;5055896;28;20450;-81
2022/12/26 14:43:34;;;;;;;0.50;0.50;;;9.50;99.90;;;;;;5055976;28;20481;-81
2022/12/26 14:46:44;;;;;;;0.70;0.50;;;9.40;99.90;;;;;;5055749;28;20493;-81
2022/12/26 14:49:22;;;;;;;0.40;0.37;;;9.50;99.90;;;;;;5055640;28;20482;-81
2022/12/26 14:51:51;;;;;;;0.40;0.30;;;9.40;99.90;;;;;;5054998;28;20442;-81
2022/12/26 14:54:45;;;;;;;0.40;0.30;;;9.40;99.90;;;;;;5055525;28;20493;-81
2022/12/26 14:57:45;;;;;;;0.40;0.40;;;9.30;99.90;;;;;;5053395;28;20446;-81
2022/12/26 15:00:38;;;;;;;0.30;0.30;;;9.30;99.90;;;;;;5055385;28;20435;-81
2022/12/26 15:03:24;;;;;;;0.40;0.40;;;9.30;99.90;;;;;;5055713;28;20419;-81
2022/12/26 15:05:52;;;;;;;0.50;0.47;;;9.20;99.90;;;;;;5055686;28;20431;-81
2022/12/26 15:08:48;;;;;;;1.17;0.40;;;9.30;99.90;;;;;;5055641;28;20810;-81
2022/12/26 15:11:47;;;;;;;0.30;0.30;;;9.30;99.90;;;;;;5051992;28;20840;-81
2022/12/26 15:14:42;;;;;;;0.40;0.30;;;9.20;99.90;;;;;;5055452;28;20848;-81
2022/12/26 15:20:42;;;;;;;0.50;0.30;;;9.10;99.90;;;;;;5054533;28;20941;-81
2022/12/26 15:23:45;;;;;;;0.40;0.40;;;9.10;99.90;;;;;;5055313;28;20786;-81
2022/12/26 15:26:41;;;;;;;0.33;0.33;;;9.00;99.90;;;;;;5055055;28;20910;-81
2022/12/26 15:29:28;;;;;;;0.30;0.20;;;9.00;99.90;;;;;;5055284;28;20805;-81
2022/12/26 15:32:05;;;;;;;0.47;0.40;;;8.90;99.90;;;;;;5054930;28;20945;-81
2022/12/26 15:34:46;;;;;;;0.30;0.30;;;8.90;99.90;;;;;;5055100;28;20853;-81
2022/12/26 15:37:27;;;;;;;0.40;0.30;;;8.90;99.90;;;;;;5054863;28;20872;-81
2022/12/26 15:40:06;;;;;;;0.80;0.50;;;8.80;99.90;;;;;;5055156;28;20493;-81